sensor_id;sensor_type;location;lat;lon;timestamp;temperature;humidity
736;DHT22;352;48.626;9.238;2023-05-29T00:00:51;16.30;90.60
736;DHT22;352;48.626;9.238;2023-05-29T00:03:18;16.30;90.80
736;DHT22;352;48.626;9.238;2023-05-29T00:05:45;16.30;90.80
736;DHT22;352;48.626;9.238;2023-05-29T00:08:12;16.20;90.80
736;DHT22;352;48.626;9.238;2023-05-29T00:10:40;16.20;90.80
736;DHT22;352;48.626;9.238;2023-05-29T00:13:06;16.20;90.90
736;DHT22;352;48.626;9.238;2023-05-29T00:15:33;16.20;90.80
736;DHT22;352;48.626;9.238;2023-05-29T00:18:00;16.10;90.80
736;DHT22;352;48.626;9.238;2023-05-29T00:20:27;16.10;91.00
736;DHT22;352;48.626;9.238;2023-05-29T00:22:54;16.10;91.00
736;DHT22;352;48.626;9.238;2023-05-29T00:25:21;16.10;91.10
736;DHT22;352;48.626;9.238;2023-05-29T00:27:49;16.10;91.00
736;DHT22;352;48.626;9.238;2023-05-29T00:30:15;16.00;91.10
736;DHT22;352;48.626;9.238;2023-05-29T00:32:42;16.00;91.30
736;DHT22;352;48.626;9.238;2023-05-29T00:35:09;15.90;91.40
736;DHT22;352;48.626;9.238;2023-05-29T00:37:36;15.90;91.50
736;DHT22;352;48.626;9.238;2023-05-29T00:40:03;15.90;91.50
736;DHT22;352;48.626;9.238;2023-05-29T00:42:30;15.80;91.60
736;DHT22;352;48.626;9.238;2023-05-29T00:44:58;15.90;91.70
736;DHT22;352;48.626;9.238;2023-05-29T00:47:25;15.80;91.70
736;DHT22;352;48.626;9.238;2023-05-29T00:49:53;15.70;92.10
736;DHT22;352;48.626;9.238;2023-05-29T00:52:21;15.70;92.40
736;DHT22;352;48.626;9.238;2023-05-29T00:54:50;15.70;92.30
736;DHT22;352;48.626;9.238;2023-05-29T00:57:17;15.60;92.40
736;DHT22;352;48.626;9.238;2023-05-29T00:59:46;15.50;92.70
736;DHT22;352;48.626;9.238;2023-05-29T01:02:15;15.40;92.80
736;DHT22;352;48.626;9.238;2023-05-29T01:04:44;15.40;92.90
736;DHT22;352;48.626;9.238;2023-05-29T01:07:11;15.40;93.00
736;DHT22;352;48.626;9.238;2023-05-29T01:09:39;15.40;93.10
736;DHT22;352;48.626;9.238;2023-05-29T01:12:17;15.40;93.40
736;DHT22;352;48.626;9.238;2023-05-29T01:14:55;15.40;93.50
736;DHT22;352;48.626;9.238;2023-05-29T01:17:30;15.30;93.50
736;DHT22;352;48.626;9.238;2023-05-29T01:20:08;15.30;93.50
736;DHT22;352;48.626;9.238;2023-05-29T01:23:06;15.30;93.60
736;DHT22;352;48.626;9.238;2023-05-29T01:25:46;15.30;93.50
736;DHT22;352;48.626;9.238;2023-05-29T01:28:16;15.30;93.70
736;DHT22;352;48.626;9.238;2023-05-29T01:30:47;15.20;93.80
736;DHT22;352;48.626;9.238;2023-05-29T01:33:15;15.20;93.80
736;DHT22;352;48.626;9.238;2023-05-29T01:35:42;15.20;93.80
736;DHT22;352;48.626;9.238;2023-05-29T01:38:08;15.20;94.00
736;DHT22;352;48.626;9.238;2023-05-29T01:40:36;15.10;93.90
736;DHT22;352;48.626;9.238;2023-05-29T01:43:03;15.10;94.00
736;DHT22;352;48.626;9.238;2023-05-29T01:45:31;15.10;94.10
736;DHT22;352;48.626;9.238;2023-05-29T01:47:58;15.10;94.30
736;DHT22;352;48.626;9.238;2023-05-29T01:50:26;15.10;94.30
736;DHT22;352;48.626;9.238;2023-05-29T01:52:54;15.10;94.30
736;DHT22;352;48.626;9.238;2023-05-29T01:55:20;15.00;94.30
736;DHT22;352;48.626;9.238;2023-05-29T01:57:47;14.90;94.50
736;DHT22;352;48.626;9.238;2023-05-29T02:00:16;15.00;94.50
736;DHT22;352;48.626;9.238;2023-05-29T02:02:45;15.00;94.70
736;DHT22;352;48.626;9.238;2023-05-29T02:05:12;14.90;94.60
736;DHT22;352;48.626;9.238;2023-05-29T02:07:39;14.80;94.80
736;DHT22;352;48.626;9.238;2023-05-29T02:10:06;14.80;95.10
736;DHT22;352;48.626;9.238;2023-05-29T02:12:33;14.70;95.20
736;DHT22;352;48.626;9.238;2023-05-29T02:15:01;14.70;95.30
736;DHT22;352;48.626;9.238;2023-05-29T02:17:28;14.70;95.20
736;DHT22;352;48.626;9.238;2023-05-29T02:19:56;14.60;95.60
736;DHT22;352;48.626;9.238;2023-05-29T02:22:22;14.50;96.00
736;DHT22;352;48.626;9.238;2023-05-29T02:24:49;14.50;96.10
736;DHT22;352;48.626;9.238;2023-05-29T02:27:16;14.40;96.00
736;DHT22;352;48.626;9.238;2023-05-29T02:29:42;14.40;96.30
736;DHT22;352;48.626;9.238;2023-05-29T02:32:09;14.40;96.20
736;DHT22;352;48.626;9.238;2023-05-29T02:34:36;14.30;96.20
736;DHT22;352;48.626;9.238;2023-05-29T02:37:04;14.30;96.50
736;DHT22;352;48.626;9.238;2023-05-29T02:39:31;14.20;96.70
736;DHT22;352;48.626;9.238;2023-05-29T02:41:58;14.20;96.90
736;DHT22;352;48.626;9.238;2023-05-29T02:44:24;14.10;96.90
736;DHT22;352;48.626;9.238;2023-05-29T02:46:51;14.00;96.90
736;DHT22;352;48.626;9.238;2023-05-29T02:49:18;14.10;96.90
736;DHT22;352;48.626;9.238;2023-05-29T02:51:45;14.00;97.00
736;DHT22;352;48.626;9.238;2023-05-29T02:54:13;14.10;97.10
736;DHT22;352;48.626;9.238;2023-05-29T02:56:39;14.00;97.10
736;DHT22;352;48.626;9.238;2023-05-29T02:59:06;14.00;97.30
736;DHT22;352;48.626;9.238;2023-05-29T03:01:33;14.00;97.40
736;DHT22;352;48.626;9.238;2023-05-29T03:03:59;14.00;97.40
736;DHT22;352;48.626;9.238;2023-05-29T03:06:26;13.90;97.50
736;DHT22;352;48.626;9.238;2023-05-29T03:08:53;13.90;97.60
736;DHT22;352;48.626;9.238;2023-05-29T03:11:22;13.80;97.70
736;DHT22;352;48.626;9.238;2023-05-29T03:13:50;13.80;97.70
736;DHT22;352;48.626;9.238;2023-05-29T03:16:17;13.80;97.80
736;DHT22;352;48.626;9.238;2023-05-29T03:18:43;13.70;97.90
736;DHT22;352;48.626;9.238;2023-05-29T03:21:10;13.70;98.00
736;DHT22;352;48.626;9.238;2023-05-29T03:23:37;13.70;98.30
736;DHT22;352;48.626;9.238;2023-05-29T03:26:04;13.60;98.20
736;DHT22;352;48.626;9.238;2023-05-29T03:28:32;13.60;98.30
736;DHT22;352;48.626;9.238;2023-05-29T03:30:59;13.60;98.30
736;DHT22;352;48.626;9.238;2023-05-29T03:33:27;13.60;98.40
736;DHT22;352;48.626;9.238;2023-05-29T03:35:54;13.60;98.20
736;DHT22;352;48.626;9.238;2023-05-29T03:38:20;13.60;98.20
736;DHT22;352;48.626;9.238;2023-05-29T03:40:47;13.60;98.50
736;DHT22;352;48.626;9.238;2023-05-29T03:43:14;13.60;98.60
736;DHT22;352;48.626;9.238;2023-05-29T03:45:42;13.60;98.60
736;DHT22;352;48.626;9.238;2023-05-29T03:48:09;13.60;98.60
736;DHT22;352;48.626;9.238;2023-05-29T03:50:35;13.50;98.60
736;DHT22;352;48.626;9.238;2023-05-29T03:53:02;13.50;98.80
736;DHT22;352;48.626;9.238;2023-05-29T03:55:29;13.50;98.80
736;DHT22;352;48.626;9.238;2023-05-29T03:57:56;13.50;98.80
736;DHT22;352;48.626;9.238;2023-05-29T04:00:22;13.50;98.90
736;DHT22;352;48.626;9.238;2023-05-29T04:02:50;13.30;98.80
736;DHT22;352;48.626;9.238;2023-05-29T04:05:17;13.20;99.20
736;DHT22;352;48.626;9.238;2023-05-29T04:07:44;13.30;99.40
736;DHT22;352;48.626;9.238;2023-05-29T04:10:11;13.20;99.30
736;DHT22;352;48.626;9.238;2023-05-29T04:12:38;13.20;99.60
736;DHT22;352;48.626;9.238;2023-05-29T04:15:06;13.20;99.70
736;DHT22;352;48.626;9.238;2023-05-29T04:17:33;13.20;99.80
736;DHT22;352;48.626;9.238;2023-05-29T04:20:01;13.20;99.90
736;DHT22;352;48.626;9.238;2023-05-29T04:22:33;13.20;99.90
736;DHT22;352;48.626;9.238;2023-05-29T04:25:01;13.30;99.90
736;DHT22;352;48.626;9.238;2023-05-29T04:27:29;13.30;99.90
736;DHT22;352;48.626;9.238;2023-05-29T04:29:57;13.40;99.90
736;DHT22;352;48.626;9.238;2023-05-29T04:32:24;13.40;99.90
736;DHT22;352;48.626;9.238;2023-05-29T04:34:51;13.50;99.90
736;DHT22;352;48.626;9.238;2023-05-29T04:37:19;13.50;99.90
736;DHT22;352;48.626;9.238;2023-05-29T04:39:55;13.60;99.90
736;DHT22;352;48.626;9.238;2023-05-29T04:42:21;13.60;99.90
736;DHT22;352;48.626;9.238;2023-05-29T04:44:50;13.60;99.90
736;DHT22;352;48.626;9.238;2023-05-29T04:47:17;13.60;99.90
736;DHT22;352;48.626;9.238;2023-05-29T04:49:44;13.70;99.90
736;DHT22;352;48.626;9.238;2023-05-29T04:52:14;13.70;99.90
736;DHT22;352;48.626;9.238;2023-05-29T04:54:42;13.80;99.90
736;DHT22;352;48.626;9.238;2023-05-29T04:57:08;13.80;99.90
736;DHT22;352;48.626;9.238;2023-05-29T04:59:36;13.90;99.90
736;DHT22;352;48.626;9.238;2023-05-29T05:02:03;14.00;99.90
736;DHT22;352;48.626;9.238;2023-05-29T05:04:29;14.10;99.90
736;DHT22;352;48.626;9.238;2023-05-29T05:06:57;14.20;99.90
736;DHT22;352;48.626;9.238;2023-05-29T05:09:24;14.40;99.90
736;DHT22;352;48.626;9.238;2023-05-29T05:11:53;14.40;99.90
736;DHT22;352;48.626;9.238;2023-05-29T05:14:20;14.50;99.90
736;DHT22;352;48.626;9.238;2023-05-29T05:16:47;14.60;99.90
736;DHT22;352;48.626;9.238;2023-05-29T05:19:13;14.60;99.90
736;DHT22;352;48.626;9.238;2023-05-29T05:21:40;14.70;99.90
736;DHT22;352;48.626;9.238;2023-05-29T05:24:07;14.90;99.90
736;DHT22;352;48.626;9.238;2023-05-29T05:26:33;15.10;99.90
736;DHT22;352;48.626;9.238;2023-05-29T05:29:02;15.20;99.90
736;DHT22;352;48.626;9.238;2023-05-29T05:31:28;15.50;99.90
736;DHT22;352;48.626;9.238;2023-05-29T05:33:55;15.80;99.60
736;DHT22;352;48.626;9.238;2023-05-29T05:36:22;16.20;99.10
736;DHT22;352;48.626;9.238;2023-05-29T05:38:49;16.70;98.30
736;DHT22;352;48.626;9.238;2023-05-29T05:41:16;17.20;97.30
736;DHT22;352;48.626;9.238;2023-05-29T05:43:42;17.70;96.00
736;DHT22;352;48.626;9.238;2023-05-29T05:46:10;18.10;95.10
736;DHT22;352;48.626;9.238;2023-05-29T05:48:39;18.50;94.70
736;DHT22;352;48.626;9.238;2023-05-29T05:51:05;18.80;93.50
736;DHT22;352;48.626;9.238;2023-05-29T05:53:32;19.20;93.20
736;DHT22;352;48.626;9.238;2023-05-29T05:55:59;19.50;92.10
736;DHT22;352;48.626;9.238;2023-05-29T05:58:26;19.80;91.60
736;DHT22;352;48.626;9.238;2023-05-29T06:00:53;20.10;91.20
736;DHT22;352;48.626;9.238;2023-05-29T06:03:21;20.40;90.50
736;DHT22;352;48.626;9.238;2023-05-29T06:05:48;20.70;89.30
736;DHT22;352;48.626;9.238;2023-05-29T06:08:16;21.60;99.90
736;DHT22;352;48.626;9.238;2023-05-29T06:10:42;21.30;88.10
736;DHT22;352;48.626;9.238;2023-05-29T06:13:11;21.50;86.00
736;DHT22;352;48.626;9.238;2023-05-29T06:15:38;21.90;85.20
736;DHT22;352;48.626;9.238;2023-05-29T06:18:05;22.10;84.70
736;DHT22;352;48.626;9.238;2023-05-29T06:20:34;22.30;83.70
736;DHT22;352;48.626;9.238;2023-05-29T06:23:00;22.60;83.10
736;DHT22;352;48.626;9.238;2023-05-29T06:25:27;22.80;83.50
736;DHT22;352;48.626;9.238;2023-05-29T06:27:58;23.00;82.70
736;DHT22;352;48.626;9.238;2023-05-29T06:30:25;23.30;80.90
736;DHT22;352;48.626;9.238;2023-05-29T06:32:52;23.50;79.50
736;DHT22;352;48.626;9.238;2023-05-29T06:35:18;23.70;78.30
736;DHT22;352;48.626;9.238;2023-05-29T06:37:46;23.90;78.80
736;DHT22;352;48.626;9.238;2023-05-29T06:40:13;23.90;77.60
736;DHT22;352;48.626;9.238;2023-05-29T06:42:41;24.00;77.60
736;DHT22;352;48.626;9.238;2023-05-29T06:45:10;24.20;78.40
736;DHT22;352;48.626;9.238;2023-05-29T06:47:38;24.50;78.60
736;DHT22;352;48.626;9.238;2023-05-29T06:50:06;24.70;78.50
736;DHT22;352;48.626;9.238;2023-05-29T06:52:33;24.80;76.60
736;DHT22;352;48.626;9.238;2023-05-29T06:55:01;24.90;77.50
736;DHT22;352;48.626;9.238;2023-05-29T06:57:28;25.00;78.40
736;DHT22;352;48.626;9.238;2023-05-29T06:59:54;25.00;76.20
736;DHT22;352;48.626;9.238;2023-05-29T07:02:21;25.10;77.10
736;DHT22;352;48.626;9.238;2023-05-29T07:07:16;25.70;73.80
736;DHT22;352;48.626;9.238;2023-05-29T07:09:43;26.30;98.70
736;DHT22;352;48.626;9.238;2023-05-29T07:12:11;26.00;92.70
736;DHT22;352;48.626;9.238;2023-05-29T07:17:05;26.40;71.70
736;DHT22;352;48.626;9.238;2023-05-29T07:19:31;26.20;72.00
736;DHT22;352;48.626;9.238;2023-05-29T07:21:59;26.00;74.50
736;DHT22;352;48.626;9.238;2023-05-29T07:29:22;26.10;71.30
736;DHT22;352;48.626;9.238;2023-05-29T07:34:16;26.00;70.60
736;DHT22;352;48.626;9.238;2023-05-29T07:36:56;26.00;72.30
736;DHT22;352;48.626;9.238;2023-05-29T07:39:24;26.10;71.10
736;DHT22;352;48.626;9.238;2023-05-29T07:41:50;26.30;69.80
736;DHT22;352;48.626;9.238;2023-05-29T07:44:18;26.50;67.10
736;DHT22;352;48.626;9.238;2023-05-29T07:46:46;26.50;67.80
736;DHT22;352;48.626;9.238;2023-05-29T07:54:08;26.40;65.20
736;DHT22;352;48.626;9.238;2023-05-29T07:56:34;26.40;66.80
736;DHT22;352;48.626;9.238;2023-05-29T07:59:01;26.30;66.60
736;DHT22;352;48.626;9.238;2023-05-29T08:01:28;26.50;65.50
736;DHT22;352;48.626;9.238;2023-05-29T08:03:56;26.40;64.60
736;DHT22;352;48.626;9.238;2023-05-29T08:06:23;26.70;63.60
736;DHT22;352;48.626;9.238;2023-05-29T08:08:50;27.00;64.50
736;DHT22;352;48.626;9.238;2023-05-29T08:13:44;28.00;76.60
736;DHT22;352;48.626;9.238;2023-05-29T08:16:11;28.10;59.40
736;DHT22;352;48.626;9.238;2023-05-29T08:18:41;28.40;59.30
736;DHT22;352;48.626;9.238;2023-05-29T08:21:09;28.60;58.50
736;DHT22;352;48.626;9.238;2023-05-29T08:30:58;28.90;60.00
736;DHT22;352;48.626;9.238;2023-05-29T08:33:25;28.80;59.60
736;DHT22;352;48.626;9.238;2023-05-29T08:38:20;29.20;57.40
736;DHT22;352;48.626;9.238;2023-05-29T08:40:47;29.40;58.60
736;DHT22;352;48.626;9.238;2023-05-29T08:43:16;29.60;58.10
736;DHT22;352;48.626;9.238;2023-05-29T08:45:44;29.40;57.40
736;DHT22;352;48.626;9.238;2023-05-29T08:50:43;29.50;58.10
736;DHT22;352;48.626;9.238;2023-05-29T08:53:10;29.40;58.10
736;DHT22;352;48.626;9.238;2023-05-29T08:55:39;29.50;58.50
736;DHT22;352;48.626;9.238;2023-05-29T08:58:06;29.70;57.80
736;DHT22;352;48.626;9.238;2023-05-29T09:00:33;29.90;56.80
736;DHT22;352;48.626;9.238;2023-05-29T09:03:02;30.00;57.20
736;DHT22;352;48.626;9.238;2023-05-29T09:07:56;30.10;56.60
736;DHT22;352;48.626;9.238;2023-05-29T09:10:23;30.40;57.40
736;DHT22;352;48.626;9.238;2023-05-29T09:12:52;30.10;70.80
736;DHT22;352;48.626;9.238;2023-05-29T09:15:20;30.30;53.60
736;DHT22;352;48.626;9.238;2023-05-29T09:17:50;30.10;68.00
736;DHT22;352;48.626;9.238;2023-05-29T09:20:19;30.30;55.70
736;DHT22;352;48.626;9.238;2023-05-29T09:22:53;30.40;55.90
736;DHT22;352;48.626;9.238;2023-05-29T09:25:20;30.60;55.00
736;DHT22;352;48.626;9.238;2023-05-29T09:27:52;30.50;54.40
736;DHT22;352;48.626;9.238;2023-05-29T09:30:34;30.40;54.80
736;DHT22;352;48.626;9.238;2023-05-29T09:33:02;30.70;60.20
736;DHT22;352;48.626;9.238;2023-05-29T09:35:33;30.60;55.30
736;DHT22;352;48.626;9.238;2023-05-29T09:38:00;30.90;53.90
736;DHT22;352;48.626;9.238;2023-05-29T09:40:30;30.80;52.90
736;DHT22;352;48.626;9.238;2023-05-29T09:43:02;30.80;53.40
736;DHT22;352;48.626;9.238;2023-05-29T09:45:30;31.00;53.10
736;DHT22;352;48.626;9.238;2023-05-29T09:50:26;31.30;51.80
736;DHT22;352;48.626;9.238;2023-05-29T09:52:53;31.30;52.40
736;DHT22;352;48.626;9.238;2023-05-29T09:55:21;31.20;53.80
736;DHT22;352;48.626;9.238;2023-05-29T09:57:47;31.20;54.00
736;DHT22;352;48.626;9.238;2023-05-29T10:00:17;31.40;55.40
736;DHT22;352;48.626;9.238;2023-05-29T10:07:43;31.80;52.10
736;DHT22;352;48.626;9.238;2023-05-29T10:10:12;31.80;51.60
736;DHT22;352;48.626;9.238;2023-05-29T10:12:42;31.80;49.60
736;DHT22;352;48.626;9.238;2023-05-29T10:15:12;31.80;50.10
736;DHT22;352;48.626;9.238;2023-05-29T10:17:49;31.90;47.10
736;DHT22;352;48.626;9.238;2023-05-29T10:20:17;31.70;46.90
736;DHT22;352;48.626;9.238;2023-05-29T10:22:45;31.80;48.20
736;DHT22;352;48.626;9.238;2023-05-29T10:25:13;31.70;46.70
736;DHT22;352;48.626;9.238;2023-05-29T10:27:41;31.40;45.90
736;DHT22;352;48.626;9.238;2023-05-29T10:30:13;31.40;46.30
736;DHT22;352;48.626;9.238;2023-05-29T10:33:02;31.30;46.60
736;DHT22;352;48.626;9.238;2023-05-29T10:35:40;31.10;46.90
736;DHT22;352;48.626;9.238;2023-05-29T10:38:11;31.20;46.20
736;DHT22;352;48.626;9.238;2023-05-29T10:40:39;31.30;44.20
736;DHT22;352;48.626;9.238;2023-05-29T10:43:06;31.30;45.40
736;DHT22;352;48.626;9.238;2023-05-29T10:45:49;31.40;44.10
736;DHT22;352;48.626;9.238;2023-05-29T10:48:40;31.20;44.50
736;DHT22;352;48.626;9.238;2023-05-29T10:51:07;31.30;44.00
736;DHT22;352;48.626;9.238;2023-05-29T10:53:34;31.10;43.90
736;DHT22;352;48.626;9.238;2023-05-29T10:56:08;30.70;44.20
736;DHT22;352;48.626;9.238;2023-05-29T10:58:36;30.70;45.10
736;DHT22;352;48.626;9.238;2023-05-29T11:01:03;30.70;45.20
736;DHT22;352;48.626;9.238;2023-05-29T11:03:31;30.80;45.10
736;DHT22;352;48.626;9.238;2023-05-29T11:06:00;30.80;44.70
736;DHT22;352;48.626;9.238;2023-05-29T11:08:33;30.90;44.90
736;DHT22;352;48.626;9.238;2023-05-29T11:11:00;30.90;43.10
736;DHT22;352;48.626;9.238;2023-05-29T11:13:32;30.80;43.30
736;DHT22;352;48.626;9.238;2023-05-29T11:16:13;30.80;45.10
736;DHT22;352;48.626;9.238;2023-05-29T11:18:41;30.70;44.40
736;DHT22;352;48.626;9.238;2023-05-29T11:21:33;30.20;45.50
736;DHT22;352;48.626;9.238;2023-05-29T11:24:01;30.00;45.90
736;DHT22;352;48.626;9.238;2023-05-29T11:26:30;30.00;47.10
736;DHT22;352;48.626;9.238;2023-05-29T11:28:59;30.10;45.60
736;DHT22;352;48.626;9.238;2023-05-29T11:31:27;29.70;73.20
736;DHT22;352;48.626;9.238;2023-05-29T11:33:59;30.00;46.30
736;DHT22;352;48.626;9.238;2023-05-29T11:36:26;29.80;46.00
736;DHT22;352;48.626;9.238;2023-05-29T11:38:55;29.90;47.90
736;DHT22;352;48.626;9.238;2023-05-29T11:41:22;30.10;47.90
736;DHT22;352;48.626;9.238;2023-05-29T11:43:58;30.10;47.40
736;DHT22;352;48.626;9.238;2023-05-29T11:46:27;29.70;47.30
736;DHT22;352;48.626;9.238;2023-05-29T11:48:56;29.20;47.70
736;DHT22;352;48.626;9.238;2023-05-29T11:51:23;29.10;48.20
736;DHT22;352;48.626;9.238;2023-05-29T11:53:50;29.10;48.80
736;DHT22;352;48.626;9.238;2023-05-29T11:56:24;29.20;49.40
736;DHT22;352;48.626;9.238;2023-05-29T11:58:52;29.00;48.80
736;DHT22;352;48.626;9.238;2023-05-29T12:01:22;28.90;49.70
736;DHT22;352;48.626;9.238;2023-05-29T12:03:50;28.90;48.80
736;DHT22;352;48.626;9.238;2023-05-29T12:06:30;29.00;49.60
736;DHT22;352;48.626;9.238;2023-05-29T12:08:57;29.10;50.10
736;DHT22;352;48.626;9.238;2023-05-29T12:11:25;29.10;49.20
736;DHT22;352;48.626;9.238;2023-05-29T12:13:56;29.00;48.80
736;DHT22;352;48.626;9.238;2023-05-29T12:16:23;28.50;46.90
736;DHT22;352;48.626;9.238;2023-05-29T12:18:51;28.20;47.70
736;DHT22;352;48.626;9.238;2023-05-29T12:21:20;28.00;48.20
736;DHT22;352;48.626;9.238;2023-05-29T12:23:47;28.00;49.30
736;DHT22;352;48.626;9.238;2023-05-29T12:26:14;27.90;48.00
736;DHT22;352;48.626;9.238;2023-05-29T12:28:44;27.80;47.80
736;DHT22;352;48.626;9.238;2023-05-29T12:31:11;27.70;48.00
736;DHT22;352;48.626;9.238;2023-05-29T12:33:43;27.50;46.50
736;DHT22;352;48.626;9.238;2023-05-29T12:36:12;27.60;47.20
736;DHT22;352;48.626;9.238;2023-05-29T12:38:47;27.60;47.60
736;DHT22;352;48.626;9.238;2023-05-29T12:41:24;27.50;47.80
736;DHT22;352;48.626;9.238;2023-05-29T12:43:54;27.30;47.00
736;DHT22;352;48.626;9.238;2023-05-29T12:46:22;27.30;48.20
736;DHT22;352;48.626;9.238;2023-05-29T12:48:49;27.30;47.20
736;DHT22;352;48.626;9.238;2023-05-29T12:51:21;27.20;48.00
736;DHT22;352;48.626;9.238;2023-05-29T12:53:48;27.20;47.90
736;DHT22;352;48.626;9.238;2023-05-29T12:56:16;27.10;47.50
736;DHT22;352;48.626;9.238;2023-05-29T12:58:42;27.10;48.50
736;DHT22;352;48.626;9.238;2023-05-29T13:01:13;27.10;48.00
736;DHT22;352;48.626;9.238;2023-05-29T13:03:41;27.10;47.90
736;DHT22;352;48.626;9.238;2023-05-29T13:06:08;26.90;47.50
736;DHT22;352;48.626;9.238;2023-05-29T13:08:34;26.80;47.80
736;DHT22;352;48.626;9.238;2023-05-29T13:13:28;26.60;46.20
736;DHT22;352;48.626;9.238;2023-05-29T13:15:55;26.40;47.60
736;DHT22;352;48.626;9.238;2023-05-29T13:18:23;26.30;48.40
736;DHT22;352;48.626;9.238;2023-05-29T13:23:17;26.30;48.30
736;DHT22;352;48.626;9.238;2023-05-29T13:25:43;26.30;48.10
736;DHT22;352;48.626;9.238;2023-05-29T13:28:11;26.30;48.50
736;DHT22;352;48.626;9.238;2023-05-29T13:30:37;26.40;49.20
736;DHT22;352;48.626;9.238;2023-05-29T13:33:04;26.50;48.70
736;DHT22;352;48.626;9.238;2023-05-29T13:35:32;26.30;47.80
736;DHT22;352;48.626;9.238;2023-05-29T13:37:59;26.30;48.50
736;DHT22;352;48.626;9.238;2023-05-29T13:40:26;26.40;48.50
736;DHT22;352;48.626;9.238;2023-05-29T13:42:53;26.40;47.80
736;DHT22;352;48.626;9.238;2023-05-29T13:45:20;26.30;47.20
736;DHT22;352;48.626;9.238;2023-05-29T13:47:47;26.20;47.30
736;DHT22;352;48.626;9.238;2023-05-29T13:50:14;26.30;48.40
736;DHT22;352;48.626;9.238;2023-05-29T13:52:42;26.20;47.80
736;DHT22;352;48.626;9.238;2023-05-29T13:55:09;26.10;47.40
736;DHT22;352;48.626;9.238;2023-05-29T13:57:35;26.10;46.70
736;DHT22;352;48.626;9.238;2023-05-29T14:00:02;26.10;48.00
736;DHT22;352;48.626;9.238;2023-05-29T14:02:29;26.10;58.00
736;DHT22;352;48.626;9.238;2023-05-29T14:04:56;26.10;46.00
736;DHT22;352;48.626;9.238;2023-05-29T14:07:23;26.20;46.50
736;DHT22;352;48.626;9.238;2023-05-29T14:09:51;26.00;45.20
736;DHT22;352;48.626;9.238;2023-05-29T14:12:18;26.00;46.30
736;DHT22;352;48.626;9.238;2023-05-29T14:14:45;26.00;45.30
736;DHT22;352;48.626;9.238;2023-05-29T14:17:11;26.00;45.20
736;DHT22;352;48.626;9.238;2023-05-29T14:19:38;25.90;45.60
736;DHT22;352;48.626;9.238;2023-05-29T14:24:32;26.00;46.00
736;DHT22;352;48.626;9.238;2023-05-29T14:27:00;25.90;46.40
736;DHT22;352;48.626;9.238;2023-05-29T14:29:27;25.80;46.30
736;DHT22;352;48.626;9.238;2023-05-29T14:31:54;25.70;46.50
736;DHT22;352;48.626;9.238;2023-05-29T14:34:21;25.70;46.70
736;DHT22;352;48.626;9.238;2023-05-29T14:36:48;25.70;46.70
736;DHT22;352;48.626;9.238;2023-05-29T14:39:15;25.70;47.30
736;DHT22;352;48.626;9.238;2023-05-29T14:44:10;25.70;46.50
736;DHT22;352;48.626;9.238;2023-05-29T14:46:37;25.70;46.80
736;DHT22;352;48.626;9.238;2023-05-29T14:49:04;25.70;46.10
736;DHT22;352;48.626;9.238;2023-05-29T14:51:32;25.70;44.80
736;DHT22;352;48.626;9.238;2023-05-29T14:53:59;25.70;44.70
736;DHT22;352;48.626;9.238;2023-05-29T14:56:25;25.60;45.20
736;DHT22;352;48.626;9.238;2023-05-29T14:58:52;25.60;46.00
736;DHT22;352;48.626;9.238;2023-05-29T15:01:20;25.60;44.80
736;DHT22;352;48.626;9.238;2023-05-29T15:03:47;25.50;43.60
736;DHT22;352;48.626;9.238;2023-05-29T15:06:13;25.50;43.70
736;DHT22;352;48.626;9.238;2023-05-29T15:08:40;25.50;44.00
736;DHT22;352;48.626;9.238;2023-05-29T15:11:09;25.50;44.40
736;DHT22;352;48.626;9.238;2023-05-29T15:13:37;25.50;44.80
736;DHT22;352;48.626;9.238;2023-05-29T15:16:05;25.60;45.80
736;DHT22;352;48.626;9.238;2023-05-29T15:18:33;25.60;44.90
736;DHT22;352;48.626;9.238;2023-05-29T15:21:00;25.60;44.10
736;DHT22;352;48.626;9.238;2023-05-29T15:23:27;25.50;45.40
736;DHT22;352;48.626;9.238;2023-05-29T15:25:54;25.50;44.90
736;DHT22;352;48.626;9.238;2023-05-29T15:28:21;25.60;43.90
736;DHT22;352;48.626;9.238;2023-05-29T15:30:47;25.50;43.50
736;DHT22;352;48.626;9.238;2023-05-29T15:33:14;25.50;43.10
736;DHT22;352;48.626;9.238;2023-05-29T15:35:42;25.50;43.70
736;DHT22;352;48.626;9.238;2023-05-29T15:38:11;25.50;43.40
736;DHT22;352;48.626;9.238;2023-05-29T15:40:38;25.40;44.40
736;DHT22;352;48.626;9.238;2023-05-29T15:43:05;25.40;45.30
736;DHT22;352;48.626;9.238;2023-05-29T15:45:32;25.40;44.30
736;DHT22;352;48.626;9.238;2023-05-29T15:47:59;25.40;44.60
736;DHT22;352;48.626;9.238;2023-05-29T15:50:26;25.50;44.40
736;DHT22;352;48.626;9.238;2023-05-29T15:52:54;25.40;45.20
736;DHT22;352;48.626;9.238;2023-05-29T15:57:48;25.70;54.30
736;DHT22;352;48.626;9.238;2023-05-29T16:00:15;25.50;46.10
736;DHT22;352;48.626;9.238;2023-05-29T16:02:43;25.50;46.20
736;DHT22;352;48.626;9.238;2023-05-29T16:05:10;25.40;45.60
736;DHT22;352;48.626;9.238;2023-05-29T16:10:06;25.40;45.40
736;DHT22;352;48.626;9.238;2023-05-29T16:12:33;25.40;45.30
736;DHT22;352;48.626;9.238;2023-05-29T16:17:27;25.30;44.80
736;DHT22;352;48.626;9.238;2023-05-29T16:19:54;25.10;50.60
736;DHT22;352;48.626;9.238;2023-05-29T16:22:21;25.30;45.40
736;DHT22;352;48.626;9.238;2023-05-29T16:24:48;25.30;45.20
736;DHT22;352;48.626;9.238;2023-05-29T16:27:17;25.30;46.00
736;DHT22;352;48.626;9.238;2023-05-29T16:29:43;25.20;46.00
736;DHT22;352;48.626;9.238;2023-05-29T16:32:10;25.30;46.70
736;DHT22;352;48.626;9.238;2023-05-29T16:34:37;25.30;46.50
736;DHT22;352;48.626;9.238;2023-05-29T16:37:05;25.20;47.30
736;DHT22;352;48.626;9.238;2023-05-29T16:42:00;25.20;46.90
736;DHT22;352;48.626;9.238;2023-05-29T16:44:28;25.20;47.60
736;DHT22;352;48.626;9.238;2023-05-29T16:46:55;25.20;48.00
736;DHT22;352;48.626;9.238;2023-05-29T16:49:22;25.20;46.60
736;DHT22;352;48.626;9.238;2023-05-29T16:51:49;25.20;47.20
736;DHT22;352;48.626;9.238;2023-05-29T16:54:16;25.10;48.60
736;DHT22;352;48.626;9.238;2023-05-29T16:56:43;25.10;49.40
736;DHT22;352;48.626;9.238;2023-05-29T16:59:10;25.00;50.70
736;DHT22;352;48.626;9.238;2023-05-29T17:01:38;24.90;51.60
736;DHT22;352;48.626;9.238;2023-05-29T17:04:06;24.90;51.30
736;DHT22;352;48.626;9.238;2023-05-29T17:06:35;24.90;51.30
736;DHT22;352;48.626;9.238;2023-05-29T17:09:03;24.90;51.70
736;DHT22;352;48.626;9.238;2023-05-29T17:11:30;24.90;52.60
736;DHT22;352;48.626;9.238;2023-05-29T17:13:56;24.90;52.50
736;DHT22;352;48.626;9.238;2023-05-29T17:16:23;24.80;52.20
736;DHT22;352;48.626;9.238;2023-05-29T17:18:51;24.70;52.50
736;DHT22;352;48.626;9.238;2023-05-29T17:21:18;24.70;53.20
736;DHT22;352;48.626;9.238;2023-05-29T17:23:44;24.70;53.40
736;DHT22;352;48.626;9.238;2023-05-29T17:26:11;24.60;52.90
736;DHT22;352;48.626;9.238;2023-05-29T17:28:38;24.60;52.70
736;DHT22;352;48.626;9.238;2023-05-29T17:31:05;24.60;53.70
736;DHT22;352;48.626;9.238;2023-05-29T17:33:32;24.50;53.60
736;DHT22;352;48.626;9.238;2023-05-29T17:36:00;24.50;54.00
736;DHT22;352;48.626;9.238;2023-05-29T17:38:27;24.40;54.20
736;DHT22;352;48.626;9.238;2023-05-29T17:40:53;24.30;54.30